createdAt,value
2022-12-13T00:01:45.353Z,21.90
2022-12-13T00:04:12.254Z,21.70
2022-12-13T00:09:05.590Z,20.60
2022-12-13T00:11:32.347Z,20.60
2022-12-13T00:13:59.473Z,19.90
2022-12-13T00:16:26.392Z,19.00
2022-12-13T00:21:23.445Z,18.80
2022-12-13T00:23:50.564Z,18.50
2022-12-13T00:26:19.083Z,19.40
2022-12-13T00:28:48.121Z,19.90
2022-12-13T00:31:53.605Z,20.10
2022-12-13T00:34:02.172Z,20.60
2022-12-13T00:36:28.865Z,19.90
2022-12-13T00:39:01.709Z,17.90
2022-12-13T00:41:33.101Z,20.40
2022-12-13T00:43:59.895Z,21.10
2022-12-13T00:46:26.857Z,21.30
2022-12-13T00:48:55.234Z,21.40
2022-12-13T00:51:22.088Z,22.30
2022-12-13T00:56:21.396Z,18.90
2022-12-13T00:58:52.187Z,19.60
2022-12-13T01:01:21.489Z,21.00
2022-12-13T01:03:49.355Z,19.90
2022-12-13T01:06:17.756Z,21.50
2022-12-13T01:08:44.753Z,20.00
2022-12-13T01:13:38.312Z,20.00
2022-12-13T01:18:32.244Z,17.50
2022-12-13T01:21:11.308Z,20.40
2022-12-13T01:23:38.024Z,20.40
2022-12-13T01:26:05.924Z,19.60
2022-12-13T01:28:32.670Z,21.30
2022-12-13T01:31:00.988Z,20.80
2022-12-13T01:33:27.970Z,21.10
2022-12-13T01:35:54.693Z,20.30
2022-12-13T01:38:21.574Z,21.80
2022-12-13T01:40:58.799Z,24.70
2022-12-13T01:43:29.257Z,24.40
2022-12-13T01:45:55.922Z,23.40
2022-12-13T01:48:28.158Z,24.70
2022-12-13T01:50:57.115Z,23.00
2022-12-13T01:53:26.729Z,22.60
2022-12-13T01:55:54.996Z,21.10
2022-12-13T01:58:21.627Z,20.90
2022-12-13T02:00:48.481Z,20.50
2022-12-13T02:05:56.476Z,19.40
2022-12-13T02:08:27.506Z,20.00
2022-12-13T03:57:32.996Z,24.70
2022-12-13T03:59:59.737Z,23.70
2022-12-13T04:02:31.007Z,24.40
2022-12-13T04:04:58.353Z,24.80
2022-12-13T04:07:27.693Z,21.30
2022-12-13T04:10:01.131Z,23.70
2022-12-13T04:12:48.591Z,25.30
2022-12-13T04:15:15.762Z,22.60
2022-12-13T04:17:42.732Z,22.00
2022-12-13T04:20:10.057Z,24.10
2022-12-13T04:22:36.792Z,24.10
2022-12-13T04:25:04.501Z,23.80
2022-12-13T04:27:31.184Z,24.60
2022-12-13T04:29:57.832Z,23.20
2022-12-13T04:32:26.622Z,22.40
2022-12-13T04:35:00.749Z,23.60
2022-12-13T04:37:28.222Z,21.60
2022-12-13T04:42:28.447Z,21.10
2022-12-13T04:44:55.130Z,22.50
2022-12-13T04:47:21.794Z,21.30
2022-12-13T04:49:48.585Z,21.00
2022-12-13T04:52:22.458Z,21.70
2022-12-13T04:54:55.640Z,21.30
2022-12-13T04:57:23.029Z,21.00
2022-12-13T05:02:23.466Z,22.20
2022-12-13T05:04:54.338Z,22.00
2022-12-13T05:07:23.023Z,23.80
2022-12-13T05:09:49.711Z,22.40
2022-12-13T05:12:22.521Z,24.40
2022-12-13T05:14:49.673Z,23.80
2022-12-13T05:17:16.740Z,24.10
2022-12-13T05:19:43.547Z,24.30
2022-12-13T05:22:19.850Z,23.40
2022-12-13T05:27:25.701Z,22.70
2022-12-13T05:30:05.191Z,21.10
2022-12-13T05:32:42.745Z,23.60
2022-12-13T05:35:12.628Z,23.60
2022-12-13T05:37:39.426Z,21.20
2022-12-13T05:40:06.985Z,21.60
2022-12-13T05:42:33.695Z,23.40
2022-12-13T05:45:00.360Z,23.80
2022-12-13T05:47:27.020Z,22.70
2022-12-13T05:49:53.744Z,23.00
2022-12-13T05:52:21.542Z,21.50
2022-12-13T05:54:57.348Z,21.10
2022-12-13T05:57:28.103Z,21.70
2022-12-13T05:59:54.864Z,20.80
2022-12-13T06:02:22.184Z,20.90
2022-12-13T06:04:49.043Z,21.70
2022-12-13T06:07:15.668Z,22.30
2022-12-13T06:09:42.752Z,23.00
2022-12-13T06:12:30.880Z,24.90
2022-12-13T06:15:00.936Z,22.40
2022-12-13T06:17:32.592Z,23.40
2022-12-13T06:19:59.399Z,23.90
2022-12-13T06:22:26.408Z,21.40
2022-12-13T06:24:53.408Z,23.80
2022-12-13T06:27:21.193Z,23.80
2022-12-13T06:29:47.860Z,24.50
2022-12-13T06:32:14.553Z,23.70
2022-12-13T06:34:41.206Z,24.60
2022-12-13T06:37:09.124Z,24.50
2022-12-13T06:39:36.384Z,23.80
2022-12-13T06:42:05.994Z,24.10
2022-12-13T06:44:32.820Z,24.00
2022-12-13T06:47:10.782Z,23.10
2022-12-13T06:49:39.423Z,25.10
2022-12-13T06:52:06.317Z,27.40
2022-12-13T06:54:33.253Z,28.00
2022-12-13T06:56:59.971Z,25.80
2022-12-13T06:59:26.592Z,28.70
2022-12-13T07:01:53.442Z,25.10
2022-12-13T07:04:29.857Z,25.80
2022-12-13T07:07:01.621Z,25.40
2022-12-13T07:09:32.172Z,24.20
2022-12-13T07:11:59.064Z,24.40
2022-12-13T07:16:55.462Z,26.20
2022-12-13T07:19:26.191Z,29.00
2022-12-13T07:22:01.705Z,29.60
2022-12-13T07:24:28.369Z,25.80
2022-12-13T07:26:55.036Z,26.50
2022-12-13T07:29:22.242Z,23.30
2022-12-13T07:31:49.984Z,25.10
2022-12-13T07:34:16.900Z,24.90
2022-12-13T07:39:10.572Z,24.60
2022-12-13T07:41:37.421Z,25.20
2022-12-13T07:44:04.940Z,24.40
2022-12-13T07:46:33.400Z,23.80
2022-12-13T07:49:04.037Z,24.00
2022-12-13T07:51:33.790Z,23.50
2022-12-13T07:54:00.816Z,22.60
2022-12-13T07:56:33.769Z,21.00
2022-12-13T07:59:00.438Z,21.80
2022-12-13T08:01:27.178Z,22.40
2022-12-13T08:03:54.498Z,20.80
2022-12-13T08:06:21.160Z,23.50
2022-12-13T08:08:51.037Z,23.00
2022-12-13T08:13:03.805Z,24.40
2022-12-13T08:15:30.552Z,26.30
2022-12-13T08:17:57.414Z,25.40
2022-12-13T08:20:24.098Z,26.70
2022-12-13T08:23:01.946Z,27.90
2022-12-13T08:25:29.795Z,29.30
2022-12-13T08:27:56.455Z,26.90
2022-12-13T08:30:28.655Z,26.60
2022-12-13T08:32:55.982Z,24.60
2022-12-13T08:35:22.605Z,23.00
2022-12-13T08:37:49.330Z,23.70
2022-12-13T08:40:16.336Z,24.80
2022-12-13T08:42:44.044Z,31.50
2022-12-13T08:47:41.716Z,31.80
2022-12-13T08:50:08.992Z,30.40
2022-12-13T08:55:10.305Z,29.40
2022-12-13T08:57:37.665Z,26.80
2022-12-13T09:00:08.307Z,24.60
2022-12-13T09:02:38.027Z,24.40
2022-12-13T09:05:07.313Z,23.10
2022-12-13T09:07:35.870Z,31.20
2022-12-13T09:10:07.303Z,27.90
2022-12-13T09:12:50.288Z,29.50
2022-12-13T09:15:21.826Z,26.40
2022-12-13T09:17:52.507Z,25.60
2022-12-13T09:20:28.569Z,24.00
2022-12-13T09:23:01.597Z,24.70
2022-12-13T09:25:36.952Z,22.20
2022-12-13T09:28:08.425Z,21.50
2022-12-13T09:30:38.320Z,22.00
2022-12-13T09:33:28.510Z,23.30
2022-12-13T09:35:52.226Z,21.30
2022-12-13T09:38:19.256Z,23.70
2022-12-13T09:40:46.065Z,21.80
2022-12-13T09:45:50.568Z,22.00
2022-12-13T09:50:57.972Z,23.30
2022-12-13T09:53:37.369Z,28.30
2022-12-13T09:56:10.760Z,27.00
2022-12-13T09:58:38.136Z,20.00
2022-12-13T10:03:31.483Z,18.40
2022-12-13T10:06:14.220Z,20.90
2022-12-13T10:08:57.262Z,19.00
2022-12-13T10:11:32.200Z,27.20
2022-12-13T10:14:05.770Z,25.60
2022-12-13T10:16:38.602Z,22.20
2022-12-13T10:19:30.237Z,21.00
2022-12-13T10:22:01.278Z,21.00
2022-12-13T10:25:05.162Z,18.30
2022-12-13T10:27:40.292Z,18.70
2022-12-13T10:30:28.359Z,17.30
2022-12-13T10:32:59.454Z,15.60
2022-12-13T10:35:27.891Z,16.30
2022-12-13T10:37:55.495Z,13.80
2022-12-13T10:40:33.906Z,14.30
2022-12-13T10:43:17.416Z,13.90
2022-12-13T10:45:56.866Z,13.10
2022-12-13T10:48:38.844Z,14.40
2022-12-13T10:51:07.772Z,16.40
2022-12-13T10:53:55.556Z,15.50
2022-12-13T10:56:23.916Z,15.60
2022-12-13T10:59:17.299Z,15.60
2022-12-13T11:01:44.498Z,16.10
2022-12-13T11:04:29.228Z,15.20
2022-12-13T11:06:57.190Z,15.50
2022-12-13T11:09:26.957Z,16.70
2022-12-13T11:11:58.310Z,15.30
2022-12-13T11:14:37.690Z,16.90
2022-12-13T11:17:10.523Z,16.00
2022-12-13T11:19:44.490Z,15.20
2022-12-13T11:22:29.389Z,16.00
2022-12-13T11:25:00.375Z,32.40
2022-12-13T11:27:36.104Z,18.60
2022-12-13T11:30:13.192Z,15.60
2022-12-13T11:33:09.117Z,16.10
2022-12-13T11:35:47.796Z,17.80
2022-12-13T11:38:20.533Z,17.30
2022-12-13T11:40:49.797Z,17.40
2022-12-13T11:43:50.325Z,18.10
2022-12-13T11:46:19.861Z,18.90
2022-12-13T11:48:50.977Z,18.50
2022-12-13T11:51:22.265Z,17.00
2022-12-13T11:54:13.144Z,18.10
2022-12-13T11:56:54.855Z,19.50
2022-12-13T11:59:44.735Z,17.30
2022-12-13T12:02:27.515Z,17.30
2022-12-13T12:05:00.050Z,15.60
2022-12-13T12:07:33.868Z,17.30
2022-12-13T12:10:06.738Z,17.20
2022-12-13T12:12:34.896Z,16.70
2022-12-13T12:15:26.719Z,15.60
2022-12-13T12:17:55.461Z,14.40
2022-12-13T12:20:48.405Z,14.40
2022-12-13T12:23:23.743Z,14.60
2022-12-13T12:25:52.614Z,14.30
2022-12-13T12:28:31.141Z,14.20
2022-12-13T12:31:08.167Z,15.20
2022-12-13T12:33:50.737Z,14.10
2022-12-13T12:36:20.483Z,16.00
2022-12-13T12:38:52.945Z,16.10
2022-12-13T12:41:22.610Z,16.00
2022-12-13T12:44:18.769Z,17.00
2022-12-13T12:47:31.567Z,17.30
2022-12-13T12:49:56.299Z,15.90
2022-12-13T12:52:40.817Z,16.60
2022-12-13T12:55:19.329Z,16.40
2022-12-13T12:58:03.730Z,64.20
2022-12-13T13:00:43.872Z,20.10
2022-12-13T13:03:22.829Z,18.30
2022-12-13T19:28:37.379Z,4.80
2022-12-13T19:31:10.023Z,5.90
2022-12-13T19:33:37.157Z,6.30
2022-12-13T19:36:04.510Z,9.90
2022-12-13T19:38:31.581Z,7.40
2022-12-13T19:40:58.443Z,7.50
2022-12-13T19:45:53.181Z,10.10
2022-12-13T19:48:19.987Z,8.60
2022-12-13T19:53:14.342Z,7.50
2022-12-13T19:55:48.340Z,10.90
2022-12-13T19:58:15.596Z,11.20
2022-12-13T20:03:09.187Z,6.70
2022-12-13T20:08:02.958Z,6.50
2022-12-13T20:10:29.926Z,6.30
2022-12-13T20:12:57.359Z,5.70
2022-12-13T20:15:24.370Z,5.40
2022-12-13T20:17:51.799Z,5.20
2022-12-13T20:20:22.431Z,5.80
2022-12-13T20:22:49.421Z,5.50
2022-12-13T20:27:44.237Z,5.50
2022-12-13T20:30:11.470Z,8.00
2022-12-13T20:32:38.459Z,13.40
2022-12-13T20:35:05.761Z,9.30
2022-12-13T20:37:32.610Z,8.40
2022-12-13T20:42:26.895Z,6.10
2022-12-13T20:44:53.800Z,7.00
2022-12-13T20:49:48.489Z,6.70
2022-12-13T20:52:17.007Z,6.70
2022-12-13T20:54:43.689Z,8.90
2022-12-13T20:57:11.273Z,8.10
2022-12-13T20:59:37.996Z,7.80
2022-12-13T21:02:05.129Z,6.60
2022-12-13T21:06:58.635Z,8.00
2022-12-13T21:11:51.996Z,6.50
2022-12-13T21:14:25.955Z,8.70
2022-12-13T21:16:54.178Z,7.40
2022-12-13T21:19:39.465Z,8.90
2022-12-13T21:22:06.793Z,10.00
2022-12-13T21:24:33.496Z,17.60
2022-12-13T21:27:00.197Z,12.00
2022-12-13T21:29:26.892Z,9.10
2022-12-13T21:31:54.685Z,8.00
2022-12-13T21:34:22.298Z,7.70
2022-12-13T21:36:50.095Z,8.10
2022-12-13T21:39:24.724Z,9.70
2022-12-13T21:41:52.096Z,7.90
2022-12-13T21:44:18.906Z,9.80
2022-12-13T21:49:32.308Z,8.80
2022-12-13T21:51:58.972Z,9.40
2022-12-13T21:54:25.641Z,8.00
2022-12-13T21:57:10.800Z,11.10
2022-12-13T21:59:37.499Z,10.70
2022-12-13T22:02:12.235Z,10.10
2022-12-13T22:04:45.828Z,9.20
2022-12-13T22:07:34.015Z,8.30
2022-12-13T22:10:01.192Z,7.80
2022-12-13T22:12:36.142Z,10.20
2022-12-13T22:15:04.630Z,9.20
2022-12-13T22:17:35.776Z,8.50
2022-12-13T22:20:08.150Z,8.90
2022-12-13T22:22:34.906Z,8.90
2022-12-13T22:25:01.652Z,8.10
2022-12-13T22:27:28.312Z,7.40
2022-12-13T22:29:59.020Z,7.50
2022-12-13T22:32:27.680Z,8.00
2022-12-13T22:34:54.471Z,8.00
2022-12-13T22:37:21.299Z,8.60
2022-12-13T22:42:14.646Z,7.90
2022-12-13T22:44:41.364Z,7.90
2022-12-13T22:47:08.055Z,8.00
2022-12-13T22:52:01.536Z,8.00
2022-12-13T22:54:28.196Z,9.00
2022-12-13T22:56:55.142Z,8.70
2022-12-13T23:01:50.257Z,9.10
2022-12-13T23:06:43.586Z,9.80
2022-12-13T23:09:11.829Z,9.00
2022-12-13T23:11:57.203Z,8.60
2022-12-13T23:14:28.840Z,9.40
2022-12-13T23:16:55.821Z,9.00
2022-12-13T23:22:09.177Z,8.70
2022-12-13T23:24:35.812Z,8.00
2022-12-13T23:27:02.804Z,9.20
2022-12-13T23:29:29.493Z,8.90
2022-12-13T23:31:56.191Z,9.20
2022-12-13T23:34:22.838Z,7.50
2022-12-13T23:36:49.648Z,8.30
2022-12-13T23:39:16.269Z,9.10
2022-12-13T23:41:43.002Z,8.70
2022-12-13T23:44:10.072Z,10.80
2022-12-13T23:46:36.886Z,10.20
2022-12-13T23:51:31.859Z,9.00
2022-12-13T23:53:58.620Z,10.10
2022-12-13T23:56:25.327Z,11.30
2022-12-13T23:58:52.095Z,10.10
